createdAt,value
2023-06-16T00:02:14.554Z,15.83
2023-06-16T00:05:18.994Z,15.53
2023-06-16T00:08:23.550Z,15.47
2023-06-16T00:11:28.972Z,15.61
2023-06-16T00:14:33.560Z,15.56
2023-06-16T00:17:45.724Z,15.61
2023-06-16T00:20:53.108Z,15.36
2023-06-16T00:23:57.820Z,15.21
2023-06-16T00:27:02.286Z,15.41
2023-06-16T00:30:07.162Z,15.25
2023-06-16T00:33:12.121Z,15.20
2023-06-16T00:36:16.558Z,15.15
2023-06-16T00:39:21.008Z,14.88
2023-06-16T00:42:26.931Z,15.02
2023-06-16T00:45:31.416Z,15.10
2023-06-16T00:48:36.372Z,15.13
2023-06-16T00:51:41.175Z,15.27
2023-06-16T00:54:46.712Z,15.01
2023-06-16T00:57:51.929Z,15.36
2023-06-16T01:00:58.227Z,15.20
2023-06-16T01:04:02.783Z,15.09
2023-06-16T01:07:21.733Z,14.82
2023-06-16T01:10:32.670Z,15.10
2023-06-16T01:13:39.834Z,14.82
2023-06-16T01:16:45.969Z,14.89
2023-06-16T01:19:54.793Z,14.69
2023-06-16T01:23:07.304Z,14.62
2023-06-16T01:26:15.158Z,14.71
2023-06-16T01:29:22.490Z,14.50
2023-06-16T01:32:28.222Z,14.39
2023-06-16T01:35:34.329Z,14.41
2023-06-16T01:38:39.946Z,14.40
2023-06-16T01:41:45.491Z,14.38
2023-06-16T01:44:50.518Z,14.36
2023-06-16T01:47:55.100Z,14.39
2023-06-16T01:50:59.868Z,13.87
2023-06-16T01:54:04.406Z,13.88
2023-06-16T01:57:09.205Z,13.86
2023-06-16T02:00:17.633Z,13.72
2023-06-16T02:03:40.985Z,13.46
2023-06-16T02:06:56.317Z,13.50
2023-06-16T02:10:02.248Z,13.11
2023-06-16T02:13:11.839Z,13.27
2023-06-16T02:16:16.354Z,13.29
2023-06-16T02:19:20.868Z,13.09
2023-06-16T02:22:25.346Z,13.43
2023-06-16T02:25:32.074Z,13.79
2023-06-16T02:28:36.509Z,13.84
2023-06-16T02:31:41.020Z,13.33
2023-06-16T02:34:45.410Z,13.24
2023-06-16T02:37:52.449Z,13.39
2023-06-16T02:40:58.108Z,13.14
2023-06-16T02:44:02.561Z,13.02
2023-06-16T02:47:07.293Z,13.07
2023-06-16T02:50:12.002Z,13.14
2023-06-16T02:53:19.905Z,13.07
2023-06-16T02:56:24.975Z,13.25
2023-06-16T02:59:29.574Z,13.28
2023-06-16T03:02:34.216Z,13.26
2023-06-16T03:05:42.164Z,13.27
2023-06-16T03:08:47.061Z,13.20
2023-06-16T03:11:55.505Z,13.26
2023-06-16T03:15:03.941Z,12.95
2023-06-16T03:18:08.513Z,13.61
2023-06-16T03:21:13.134Z,13.59
2023-06-16T03:24:24.222Z,13.71
2023-06-16T03:27:29.269Z,13.54
2023-06-16T03:30:38.286Z,13.27
2023-06-16T03:33:46.485Z,13.02
2023-06-16T03:36:53.511Z,12.97
2023-06-16T03:40:06.886Z,13.24
2023-06-16T03:43:13.833Z,13.43
2023-06-16T03:46:18.500Z,13.26
2023-06-16T03:49:23.585Z,13.32
2023-06-16T03:52:28.421Z,13.45
2023-06-16T03:55:32.981Z,12.91
2023-06-16T03:58:37.689Z,13.14
2023-06-16T04:01:44.206Z,13.26
2023-06-16T04:04:48.866Z,13.41
2023-06-16T04:07:57.935Z,13.52
2023-06-16T04:11:02.573Z,13.75
2023-06-16T04:14:07.473Z,13.66
2023-06-16T04:17:12.050Z,13.87
2023-06-16T04:20:18.726Z,13.92
2023-06-16T04:23:23.639Z,14.10
2023-06-16T04:26:29.781Z,14.07
2023-06-16T04:29:42.748Z,14.26
2023-06-16T04:32:50.267Z,14.32
2023-06-16T04:35:57.134Z,14.42
2023-06-16T04:39:04.430Z,14.50
2023-06-16T04:42:12.041Z,14.71
2023-06-16T04:45:18.476Z,14.60
2023-06-16T04:48:25.660Z,15.08
2023-06-16T04:51:30.090Z,15.16
2023-06-16T04:54:34.569Z,14.89
2023-06-16T04:57:39.336Z,14.91
2023-06-16T05:00:44.155Z,14.90
2023-06-16T05:03:50.156Z,14.81
2023-06-16T05:06:54.596Z,14.89
2023-06-16T05:09:59.607Z,15.49
2023-06-16T05:13:04.047Z,15.59
2023-06-16T05:16:12.180Z,15.43
2023-06-16T05:19:17.026Z,15.28
2023-06-16T05:22:30.418Z,15.48
2023-06-16T05:25:35.358Z,15.60
2023-06-16T05:28:43.366Z,15.66
2023-06-16T05:31:48.077Z,15.80
2023-06-16T05:34:53.505Z,16.03
2023-06-16T05:37:59.210Z,16.00
2023-06-16T05:41:03.798Z,15.87
2023-06-16T05:44:09.032Z,16.10
2023-06-16T05:47:13.720Z,16.35
2023-06-16T05:50:22.144Z,16.16
2023-06-16T05:56:50.149Z,16.57
2023-06-16T05:59:55.054Z,16.80
2023-06-16T06:02:59.703Z,16.88
2023-06-16T06:06:09.803Z,17.77
2023-06-16T06:09:15.955Z,17.95
2023-06-16T06:12:20.528Z,18.59
2023-06-16T06:15:28.026Z,18.56
2023-06-16T06:18:38.721Z,18.81
2023-06-16T06:21:43.665Z,19.04
2023-06-16T06:24:48.137Z,18.57
2023-06-16T06:27:52.928Z,18.89
2023-06-16T06:30:57.442Z,18.44
2023-06-16T06:34:02.685Z,19.67
2023-06-16T06:37:07.902Z,19.16
2023-06-16T06:40:13.727Z,18.74
2023-06-16T06:43:19.414Z,20.23
2023-06-16T06:46:26.565Z,20.39
2023-06-16T06:49:31.197Z,19.86
2023-06-16T06:52:35.863Z,19.87
2023-06-16T06:55:40.410Z,20.30
2023-06-16T06:58:44.868Z,19.34
2023-06-16T07:01:49.314Z,19.08
2023-06-16T07:04:53.836Z,19.18
2023-06-16T07:07:58.391Z,20.51
2023-06-16T07:11:02.816Z,21.92
2023-06-16T07:14:07.282Z,21.22
2023-06-16T07:17:13.104Z,21.47
2023-06-16T07:23:46.073Z,19.91
2023-06-16T07:27:46.849Z,19.92
2023-06-16T07:30:51.522Z,19.66
2023-06-16T07:33:56.369Z,21.06
2023-06-16T07:37:01.291Z,19.69
2023-06-16T07:40:09.405Z,21.02
2023-06-16T07:43:14.255Z,20.06
2023-06-16T07:46:18.871Z,20.96
2023-06-16T07:49:24.085Z,21.91
2023-06-16T07:52:28.853Z,21.99
2023-06-16T07:55:33.331Z,21.16
2023-06-16T07:58:39.239Z,21.23
2023-06-16T08:01:46.037Z,21.72
2023-06-16T08:04:50.975Z,23.02
2023-06-16T08:07:55.560Z,22.21
2023-06-16T08:11:00.381Z,23.70
2023-06-16T08:14:04.900Z,23.16
2023-06-16T08:17:09.373Z,22.75
2023-06-16T08:20:13.860Z,21.57
2023-06-16T08:23:18.414Z,22.91
2023-06-16T08:26:23.248Z,23.88
2023-06-16T08:29:31.320Z,23.52
2023-06-16T08:32:36.172Z,24.44
2023-06-16T08:35:42.381Z,22.88
2023-06-16T08:38:47.011Z,23.43
2023-06-16T08:41:52.155Z,22.64
2023-06-16T08:44:57.053Z,25.10
2023-06-16T08:48:02.088Z,25.20
2023-06-16T08:51:10.687Z,26.11
2023-06-16T08:54:15.632Z,26.70
2023-06-16T08:57:20.475Z,25.63
2023-06-16T09:00:25.777Z,27.31
2023-06-16T09:03:34.247Z,26.91
2023-06-16T09:06:39.381Z,25.10
2023-06-16T09:09:44.222Z,25.96
2023-06-16T09:12:51.808Z,25.49
2023-06-16T09:15:58.064Z,23.08
2023-06-16T09:19:09.722Z,22.93
2023-06-16T09:22:19.498Z,23.64
2023-06-16T09:25:24.353Z,23.02
2023-06-16T09:28:35.877Z,24.47
2023-06-16T09:31:40.252Z,23.96
2023-06-16T09:34:45.053Z,23.75
2023-06-16T09:37:50.943Z,24.12
2023-06-16T09:40:55.358Z,24.07
2023-06-16T09:44:01.210Z,24.32
2023-06-16T09:47:06.632Z,23.75
2023-06-16T09:50:18.709Z,22.92
2023-06-16T09:53:23.688Z,22.60
2023-06-16T09:56:29.645Z,23.16
2023-06-16T09:59:34.098Z,23.17
2023-06-16T10:02:39.121Z,23.52
2023-06-16T10:05:47.177Z,24.05
2023-06-16T10:08:52.889Z,23.93
2023-06-16T10:11:58.059Z,23.44
2023-06-16T10:15:03.542Z,24.26
2023-06-16T10:18:11.903Z,25.61
2023-06-16T10:21:18.185Z,26.88
2023-06-16T10:24:23.367Z,26.36
2023-06-16T10:27:28.521Z,26.67
2023-06-16T10:30:33.465Z,25.37
2023-06-16T10:33:56.952Z,25.70
2023-06-16T10:37:01.848Z,27.11
2023-06-16T10:40:06.950Z,27.29
2023-06-16T10:43:23.838Z,27.14
2023-06-16T10:46:28.476Z,25.72
2023-06-16T10:49:33.080Z,25.34
2023-06-16T10:52:43.494Z,25.25
2023-06-16T10:55:49.395Z,25.07
2023-06-16T10:58:58.664Z,24.87
2023-06-16T11:02:03.172Z,25.10
2023-06-16T11:05:13.915Z,25.30
2023-06-16T11:08:18.721Z,25.15
2023-06-16T11:11:31.082Z,27.14
2023-06-16T11:14:35.854Z,27.46
2023-06-16T11:17:41.237Z,28.95
2023-06-16T11:20:45.886Z,29.33
2023-06-16T11:23:50.836Z,30.48
2023-06-16T11:26:56.881Z,30.14
2023-06-16T11:30:07.072Z,27.69
2023-06-16T11:33:13.729Z,26.49
2023-06-16T11:36:19.492Z,24.88
2023-06-16T11:39:24.080Z,24.22
2023-06-16T11:42:28.582Z,24.60
2023-06-16T11:45:34.116Z,24.14
2023-06-16T11:48:39.046Z,24.63
2023-06-16T11:51:44.353Z,24.11
2023-06-16T11:54:49.053Z,24.46
2023-06-16T11:57:53.540Z,23.79
2023-06-16T12:01:02.617Z,22.65
2023-06-16T12:04:07.357Z,22.32
2023-06-16T12:07:12.066Z,22.59
2023-06-16T12:10:17.509Z,22.70
2023-06-16T12:13:27.196Z,22.62
2023-06-16T12:16:32.871Z,22.14
2023-06-16T12:19:37.891Z,21.82
2023-06-16T12:22:43.093Z,21.13
2023-06-16T12:25:51.368Z,21.16
2023-06-16T12:28:57.345Z,20.95
2023-06-16T12:32:04.676Z,21.03
2023-06-16T12:35:09.535Z,20.60
2023-06-16T12:38:13.999Z,20.85
2023-06-16T12:41:19.325Z,20.25
2023-06-16T12:44:24.033Z,21.43
2023-06-16T12:47:29.686Z,20.17
2023-06-16T12:50:34.190Z,19.45
2023-06-16T12:53:39.435Z,19.73
2023-06-16T12:56:44.000Z,20.21
2023-06-16T12:59:49.078Z,20.13
2023-06-16T13:02:57.999Z,20.94
2023-06-16T13:06:03.857Z,21.73
2023-06-16T13:09:08.690Z,21.87
2023-06-16T13:12:14.044Z,22.21
2023-06-16T13:15:18.609Z,23.77
2023-06-16T13:18:23.366Z,25.83
2023-06-16T13:21:28.048Z,24.63
2023-06-16T13:24:32.781Z,25.79
2023-06-16T13:27:37.696Z,25.88
2023-06-16T13:30:42.654Z,27.12
2023-06-16T13:33:47.315Z,27.45
2023-06-16T13:36:51.763Z,29.08
2023-06-16T13:39:58.312Z,29.00
2023-06-16T13:43:03.519Z,28.57
2023-06-16T13:46:08.394Z,27.53
2023-06-16T13:49:13.365Z,29.27
2023-06-16T13:52:18.033Z,29.72
2023-06-16T13:55:25.334Z,30.88
2023-06-16T13:58:30.257Z,30.38
2023-06-16T14:01:34.652Z,29.59
2023-06-16T14:04:39.343Z,27.31
2023-06-16T14:07:43.778Z,23.55
2023-06-16T14:10:48.801Z,24.04
2023-06-16T14:13:53.478Z,24.25
2023-06-16T14:16:58.029Z,24.55
2023-06-16T14:20:02.468Z,23.85
2023-06-16T14:23:06.979Z,23.26
2023-06-16T14:26:11.949Z,23.64
2023-06-16T14:29:16.666Z,23.59
2023-06-16T14:32:21.521Z,23.30
2023-06-16T14:35:26.234Z,23.39
2023-06-16T14:38:30.878Z,22.81
2023-06-16T14:41:38.031Z,22.40
2023-06-16T14:44:42.720Z,23.20
2023-06-16T14:47:47.217Z,23.25
2023-06-16T14:50:51.797Z,23.92
2023-06-16T14:53:56.602Z,23.58
2023-06-16T14:57:01.057Z,25.42
2023-06-16T15:00:07.033Z,24.26
2023-06-16T15:03:12.079Z,23.75
2023-06-16T15:06:17.902Z,24.69
2023-06-16T15:09:22.351Z,25.18
2023-06-16T15:12:26.883Z,25.55
2023-06-16T15:15:32.035Z,25.28
2023-06-16T15:18:36.767Z,24.08
2023-06-16T15:21:41.343Z,26.37
2023-06-16T15:24:46.442Z,24.51
2023-06-16T15:27:59.697Z,25.03
2023-06-16T15:31:12.509Z,25.48
2023-06-16T15:34:17.992Z,25.03
2023-06-16T15:37:23.075Z,25.15
2023-06-16T15:40:31.325Z,24.52
2023-06-16T15:43:36.452Z,24.51
2023-06-16T15:46:40.986Z,24.25
2023-06-16T15:49:46.436Z,24.33
2023-06-16T15:52:51.000Z,24.25
2023-06-16T15:55:55.436Z,24.09
2023-06-16T15:59:00.076Z,24.76
2023-06-16T16:02:05.603Z,24.90
2023-06-16T16:05:11.015Z,24.73
2023-06-16T16:08:15.526Z,23.59
2023-06-16T16:11:19.959Z,24.29
2023-06-16T16:14:24.529Z,23.95
2023-06-16T16:17:29.522Z,24.39
2023-06-16T16:20:34.345Z,21.82
2023-06-16T16:23:38.808Z,21.05
2023-06-16T16:26:43.258Z,20.46
2023-06-16T16:29:47.802Z,20.00
2023-06-16T16:32:52.614Z,20.03
2023-06-16T16:35:57.172Z,20.44
2023-06-16T16:39:01.582Z,19.87
2023-06-16T16:42:06.329Z,20.18
2023-06-16T16:45:11.095Z,19.94
2023-06-16T16:48:15.748Z,20.06
2023-06-16T16:51:20.394Z,20.15
2023-06-16T16:54:25.067Z,19.81
2023-06-16T16:57:29.851Z,20.00
2023-06-16T17:00:34.281Z,20.03
2023-06-16T17:03:39.002Z,19.96
2023-06-16T17:06:43.657Z,20.56
2023-06-16T17:09:48.250Z,20.53
2023-06-16T17:12:52.670Z,20.64
2023-06-16T17:15:57.252Z,21.37
2023-06-16T17:19:01.734Z,21.79
2023-06-16T17:22:06.890Z,20.97
2023-06-16T17:25:11.338Z,22.12
2023-06-16T17:28:15.921Z,22.18
2023-06-16T17:31:20.563Z,21.80
2023-06-16T17:34:25.048Z,21.22
2023-06-16T17:37:30.016Z,21.43
2023-06-16T17:40:34.643Z,20.64
2023-06-16T17:43:39.140Z,19.84
2023-06-16T17:46:44.350Z,20.38
2023-06-16T17:49:49.409Z,20.08
2023-06-16T17:52:53.821Z,19.30
2023-06-16T17:55:59.136Z,19.15
2023-06-16T17:59:03.635Z,19.44
2023-06-16T18:02:08.205Z,19.26
2023-06-16T18:05:12.715Z,19.54
2023-06-16T18:08:17.162Z,19.92
2023-06-16T18:11:21.709Z,19.69
2023-06-16T18:14:31.397Z,19.36
2023-06-16T18:17:35.945Z,19.49
2023-06-16T18:20:42.903Z,19.68
2023-06-16T18:23:47.452Z,19.71
2023-06-16T18:26:52.139Z,19.83
2023-06-16T18:29:56.907Z,19.84
2023-06-16T18:33:02.323Z,19.53
2023-06-16T18:36:06.973Z,19.01
2023-06-16T18:39:14.349Z,18.89
2023-06-16T18:42:19.193Z,19.06
2023-06-16T18:45:23.606Z,18.74
2023-06-16T18:48:28.127Z,18.82
2023-06-16T18:51:34.056Z,18.72
2023-06-16T18:54:38.632Z,18.73
2023-06-16T18:57:43.126Z,18.37
2023-06-16T19:00:47.668Z,18.57
2023-06-16T19:03:52.881Z,18.69
2023-06-16T19:06:57.611Z,18.56
2023-06-16T19:10:02.538Z,18.27
2023-06-16T19:13:07.010Z,17.97
2023-06-16T19:16:11.731Z,17.93
2023-06-16T19:19:16.219Z,18.20
2023-06-16T19:22:20.774Z,17.98
2023-06-16T19:25:28.867Z,17.84
2023-06-16T19:28:55.663Z,17.65
2023-06-16T19:32:00.319Z,17.68
2023-06-16T19:35:05.108Z,17.75
2023-06-16T19:38:09.536Z,17.90
2023-06-16T19:41:14.108Z,17.26
2023-06-16T19:44:18.589Z,17.00
2023-06-16T19:47:23.210Z,16.99
2023-06-16T19:50:27.749Z,17.03
2023-06-16T19:53:32.340Z,17.27
2023-06-16T19:56:38.000Z,16.78
2023-06-16T19:59:42.473Z,16.21
2023-06-16T20:02:48.339Z,16.39
2023-06-16T20:05:52.944Z,16.15
2023-06-16T20:08:57.369Z,16.22
2023-06-16T20:12:01.889Z,16.08
2023-06-16T20:15:06.693Z,16.43
2023-06-16T20:18:11.188Z,16.30
2023-06-16T20:21:15.645Z,16.60
2023-06-16T20:24:20.550Z,16.13
2023-06-16T20:27:25.119Z,15.90
2023-06-16T20:30:29.734Z,15.99
2023-06-16T20:33:34.178Z,15.91
2023-06-16T20:36:39.195Z,16.14
2023-06-16T20:39:43.968Z,16.13
2023-06-16T20:42:48.578Z,15.71
2023-06-16T20:45:54.343Z,15.93
2023-06-16T20:49:00.243Z,15.97
2023-06-16T20:52:04.979Z,16.15
2023-06-16T20:55:09.542Z,15.95
2023-06-16T20:58:15.009Z,15.97
2023-06-16T21:01:20.053Z,16.03
2023-06-16T21:04:24.774Z,15.47
2023-06-16T21:07:30.255Z,15.15
2023-06-16T21:10:36.448Z,14.92
2023-06-16T21:13:41.018Z,15.65
2023-06-16T21:16:45.796Z,15.53
2023-06-16T21:19:50.459Z,15.45
2023-06-16T21:22:54.857Z,15.55
2023-06-16T21:25:59.341Z,15.36
2023-06-16T21:29:03.803Z,15.27
2023-06-16T21:32:08.451Z,15.02
2023-06-16T21:35:12.875Z,15.22
2023-06-16T21:38:21.196Z,15.40
2023-06-16T21:41:26.512Z,15.21
2023-06-16T21:44:30.927Z,15.08
2023-06-16T21:47:36.160Z,15.26
2023-06-16T21:50:41.444Z,15.11
2023-06-16T21:53:45.895Z,14.95
2023-06-16T21:56:50.640Z,15.01
2023-06-16T21:59:55.112Z,15.24
2023-06-16T22:02:59.750Z,14.87
2023-06-16T22:06:05.028Z,14.45
2023-06-16T22:09:10.602Z,14.69
2023-06-16T22:12:16.493Z,14.32
2023-06-16T22:15:21.456Z,14.34
2023-06-16T22:18:26.208Z,14.58
2023-06-16T22:21:33.151Z,14.80
2023-06-16T22:24:38.342Z,14.67
2023-06-16T22:27:43.119Z,14.65
2023-06-16T22:30:49.767Z,14.71
2023-06-16T22:33:54.345Z,14.65
2023-06-16T22:36:59.928Z,14.53
2023-06-16T22:40:04.655Z,14.59
2023-06-16T22:43:09.036Z,14.58
2023-06-16T22:46:13.452Z,14.77
2023-06-16T22:49:27.194Z,14.60
2023-06-16T22:52:32.581Z,14.87
2023-06-16T22:55:36.997Z,14.69
2023-06-16T22:58:42.025Z,14.79
2023-06-16T23:01:46.532Z,14.61
2023-06-16T23:04:51.248Z,14.68
2023-06-16T23:07:56.785Z,14.63
2023-06-16T23:11:01.292Z,14.68
2023-06-16T23:14:05.800Z,14.66
2023-06-16T23:17:10.244Z,14.53
2023-06-16T23:20:14.928Z,14.19
2023-06-16T23:23:19.606Z,14.39
2023-06-16T23:26:24.368Z,13.86
2023-06-16T23:29:29.325Z,13.80
2023-06-16T23:32:34.526Z,13.97
2023-06-16T23:35:38.939Z,13.77
2023-06-16T23:38:45.900Z,13.81
2023-06-16T23:41:50.817Z,14.01
2023-06-16T23:44:55.694Z,14.22
2023-06-16T23:48:00.217Z,14.15
2023-06-16T23:51:04.802Z,13.74
2023-06-16T23:54:09.288Z,13.82
2023-06-16T23:57:14.908Z,13.72
